createdAt,value
2019-03-12T00:00:08.726Z,99415.90
2019-03-12T00:02:42.929Z,99418.14
2019-03-12T00:05:16.732Z,99430.51
2019-03-12T00:07:50.868Z,99425.51
2019-03-12T00:10:24.812Z,99434.51
2019-03-12T00:12:58.594Z,99446.33
2019-03-12T00:15:32.883Z,99440.98
2019-03-12T00:18:06.971Z,99449.00
2019-03-12T00:20:40.696Z,99440.34
2019-03-12T00:23:14.913Z,99441.94
2019-03-12T00:25:48.927Z,99442.13
2019-03-12T00:28:23.138Z,99446.44
2019-03-12T00:30:57.261Z,99449.50
2019-03-12T00:33:31.129Z,99455.44
2019-03-12T00:36:05.379Z,99459.17
2019-03-12T00:38:38.961Z,99458.02
2019-03-12T00:41:13.102Z,99466.44
2019-03-12T00:43:47.475Z,99467.66
2019-03-12T00:46:21.633Z,99477.83
2019-03-12T00:48:54.969Z,99478.20
2019-03-12T00:51:28.877Z,99484.73
2019-03-12T00:54:02.841Z,99483.34
2019-03-12T00:56:36.675Z,99488.75
2019-03-12T00:59:09.966Z,99490.69
2019-03-12T01:01:44.054Z,99500.02
2019-03-12T01:04:17.893Z,99499.89
2019-03-12T01:06:51.114Z,99510.36
2019-03-12T01:09:25.141Z,99509.95
2019-03-12T01:11:59.278Z,99509.37
2019-03-12T01:14:33.016Z,99516.27
2019-03-12T01:17:07.815Z,99510.66
2019-03-12T01:19:41.931Z,99519.06
2019-03-12T01:22:15.626Z,99522.06
2019-03-12T01:24:49.848Z,99523.13
2019-03-12T01:27:23.555Z,99530.22
2019-03-12T01:29:56.762Z,99526.77
2019-03-12T01:32:30.962Z,99544.58
2019-03-12T01:35:04.661Z,99543.32
2019-03-12T01:37:38.014Z,99550.81
2019-03-12T01:40:12.921Z,99546.20
2019-03-12T01:42:46.577Z,99549.86
2019-03-12T01:45:20.696Z,99552.37
2019-03-12T01:47:54.485Z,99551.70
2019-03-12T01:50:28.735Z,99557.11
2019-03-12T01:53:02.955Z,99553.81
2019-03-12T01:55:37.058Z,99565.38
2019-03-12T01:58:10.882Z,99566.98
2019-03-12T02:00:44.857Z,99576.47
2019-03-12T02:03:18.929Z,99581.96
2019-03-12T02:05:53.138Z,99584.28
2019-03-12T02:08:26.382Z,99593.30
2019-03-12T02:11:00.409Z,99597.17
2019-03-12T02:13:34.938Z,99600.44
2019-03-12T02:16:09.051Z,99605.64
2019-03-12T02:18:43.160Z,99612.59
2019-03-12T02:21:17.256Z,99621.30
2019-03-12T02:23:51.512Z,99621.87
2019-03-12T02:26:25.612Z,99617.92
2019-03-12T02:28:59.614Z,99624.40
2019-03-12T02:31:33.915Z,99633.32
2019-03-12T02:34:08.174Z,99642.31
2019-03-12T02:36:42.244Z,99642.01
2019-03-12T02:39:16.252Z,99641.89
2019-03-12T02:41:50.495Z,99649.39
2019-03-12T02:44:24.732Z,99656.11
2019-03-12T02:46:58.814Z,99667.15
2019-03-12T02:49:32.557Z,99675.83
2019-03-12T02:52:06.313Z,99686.58
2019-03-12T02:54:39.933Z,99693.09
2019-03-12T02:57:14.127Z,99700.11
2019-03-12T02:59:47.908Z,99702.56
2019-03-12T03:02:22.198Z,99705.52
2019-03-12T03:04:55.797Z,99711.53
2019-03-12T03:07:53.338Z,99719.30
2019-03-12T03:10:27.417Z,99718.59
2019-03-12T03:13:00.806Z,99729.19
2019-03-12T03:15:44.296Z,99724.75
2019-03-12T03:18:18.019Z,99741.63
2019-03-12T03:20:51.727Z,99732.84
2019-03-12T03:23:25.473Z,99740.22
2019-03-12T03:25:59.225Z,99735.56
2019-03-12T03:28:33.347Z,99737.20
2019-03-12T03:31:07.138Z,99735.20
2019-03-12T03:33:41.362Z,99736.00
2019-03-12T03:36:15.429Z,99744.38
2019-03-12T03:38:48.639Z,99746.36
2019-03-12T03:41:22.879Z,99757.39
2019-03-12T03:43:57.078Z,99767.64
2019-03-12T03:46:30.894Z,99766.99
2019-03-12T03:49:04.624Z,99767.63
2019-03-12T03:51:37.865Z,99762.82
2019-03-12T03:54:11.587Z,99764.95
2019-03-12T03:56:45.278Z,99775.19
2019-03-12T03:59:19.331Z,99774.85
2019-03-12T04:01:53.541Z,99782.02
2019-03-12T04:04:27.670Z,99776.81
2019-03-12T04:07:01.317Z,99771.43
2019-03-12T04:09:35.119Z,99778.09
2019-03-12T04:12:09.866Z,99777.02
2019-03-12T04:14:44.005Z,99775.30
2019-03-12T04:17:18.326Z,99776.48
2019-03-12T04:19:51.582Z,99771.41
2019-03-12T04:22:25.796Z,99770.13
2019-03-12T04:24:59.922Z,99768.91
2019-03-12T04:27:34.140Z,99774.64
2019-03-12T04:30:08.233Z,99787.69
2019-03-12T04:32:41.982Z,99783.41
2019-03-12T04:35:17.124Z,99781.92
2019-03-12T04:37:53.258Z,99785.99
2019-03-12T04:40:29.419Z,99784.30
2019-03-12T04:43:03.627Z,99793.30
2019-03-12T04:45:37.373Z,99796.67
2019-03-12T04:48:11.112Z,99796.83
2019-03-12T04:50:45.282Z,99797.75
2019-03-12T04:53:19.382Z,99801.08
2019-03-12T04:55:53.478Z,99811.22
2019-03-12T04:58:28.010Z,99818.15
2019-03-12T05:01:01.295Z,99818.84
2019-03-12T05:03:35.308Z,99834.56
2019-03-12T05:06:09.300Z,99829.72
2019-03-12T05:08:43.973Z,99832.30
2019-03-12T05:11:18.167Z,99834.92
2019-03-12T05:14:41.657Z,99839.44
2019-03-12T05:17:34.752Z,99842.02
2019-03-12T05:20:09.015Z,99856.61
2019-03-12T05:22:41.981Z,99849.37
2019-03-12T05:25:14.595Z,99857.63
2019-03-12T05:27:47.226Z,99861.72
2019-03-12T05:30:20.512Z,99865.88
2019-03-12T05:32:54.664Z,99871.42
2019-03-12T05:35:27.103Z,99871.45
2019-03-12T05:37:59.666Z,99881.83
2019-03-12T05:40:32.983Z,99882.09
2019-03-12T05:43:05.935Z,99886.00
2019-03-12T05:45:38.840Z,99886.89
2019-03-12T05:48:11.798Z,99898.52
2019-03-12T05:50:44.286Z,99900.05
2019-03-12T05:53:16.903Z,99908.42
2019-03-12T05:55:49.356Z,99911.73
2019-03-12T05:58:22.347Z,99919.61
2019-03-12T06:00:55.508Z,99921.17
2019-03-12T06:03:29.261Z,99930.39
2019-03-12T06:06:02.227Z,99932.73
2019-03-12T06:08:34.669Z,99933.81
2019-03-12T06:11:06.742Z,99933.02
2019-03-12T06:13:39.644Z,99944.48
2019-03-12T06:16:12.890Z,99938.83
2019-03-12T06:18:45.244Z,99942.74
2019-03-12T06:21:18.293Z,99949.58
2019-03-12T06:23:51.674Z,99949.92
2019-03-12T06:26:24.535Z,99946.44
2019-03-12T06:28:56.578Z,99951.52
2019-03-12T06:32:02.323Z,99955.63
2019-03-12T06:34:45.079Z,99951.64
2019-03-12T06:37:28.981Z,99957.39
2019-03-12T06:40:30.494Z,99959.42
2019-03-12T06:43:12.596Z,99969.25
2019-03-12T06:46:07.460Z,99967.12
2019-03-12T06:48:54.198Z,99973.98
2019-03-12T06:52:03.963Z,99979.63
2019-03-12T06:55:01.240Z,99978.86
2019-03-12T06:57:56.669Z,99974.76
2019-03-12T07:00:52.896Z,99977.64
2019-03-12T07:03:43.964Z,99993.66
2019-03-12T07:06:39.303Z,99994.77
2019-03-12T07:09:26.262Z,100000.34
2019-03-12T07:12:07.166Z,99999.95
2019-03-12T07:15:02.015Z,99999.33
2019-03-12T07:17:55.504Z,100006.81
2019-03-12T07:20:45.959Z,100013.75
2019-03-12T07:23:28.561Z,100019.24
2019-03-12T07:26:24.267Z,100026.16
2019-03-12T07:29:10.639Z,100032.58
2019-03-12T07:32:40.454Z,100034.95
2019-03-12T07:35:24.913Z,100028.97
2019-03-12T07:38:07.184Z,100027.20
2019-03-12T07:41:05.604Z,100037.61
2019-03-12T07:43:46.680Z,100050.97
2019-03-12T07:46:50.566Z,100032.91
2019-03-12T07:49:42.225Z,100026.00
2019-03-12T07:52:37.816Z,100046.71
2019-03-12T07:55:38.616Z,100034.83
2019-03-12T07:58:42.325Z,100028.52
2019-03-12T08:01:39.063Z,100019.36
2019-03-12T08:04:18.637Z,100022.55
2019-03-12T08:07:13.235Z,100034.34
2019-03-12T08:10:22.488Z,100037.83
2019-03-12T08:13:26.551Z,100032.98
2019-03-12T08:16:13.142Z,100018.17
2019-03-12T08:19:15.388Z,100028.62
2019-03-12T08:22:01.261Z,100030.30
2019-03-12T08:24:56.158Z,100023.14
2019-03-12T08:27:48.421Z,100030.72
2019-03-12T08:30:43.600Z,100042.61
2019-03-12T08:33:49.564Z,100031.62
2019-03-12T08:36:36.482Z,100038.07
2019-03-12T08:39:14.807Z,100041.06
2019-03-12T08:42:04.805Z,100036.89
2019-03-12T08:44:55.453Z,100048.59
2019-03-12T08:47:51.357Z,100047.11
2019-03-12T08:50:45.617Z,100042.62
2019-03-12T08:53:35.277Z,100042.27
2019-03-12T08:56:35.776Z,100036.13
2019-03-12T08:59:43.478Z,100043.47
2019-03-12T09:02:27.452Z,100047.48
2019-03-12T09:05:26.067Z,100030.52
2019-03-12T09:08:17.148Z,100034.64
2019-03-12T09:11:03.597Z,100034.25
2019-03-12T09:13:54.402Z,100041.98
2019-03-12T09:16:39.575Z,100032.14
2019-03-12T09:19:28.437Z,100045.05
2019-03-12T09:22:21.521Z,100028.97
2019-03-12T09:25:31.605Z,100032.02
2019-03-12T09:28:42.908Z,100029.66
2019-03-12T09:31:45.638Z,100032.66
2019-03-12T09:34:38.600Z,100029.73
2019-03-12T09:37:41.874Z,100037.20
2019-03-12T09:40:42.040Z,100023.06
2019-03-12T09:43:27.096Z,100034.72
2019-03-12T09:46:26.477Z,100046.56
2019-03-12T09:49:22.316Z,100051.12
2019-03-12T09:52:21.193Z,100044.63
2019-03-12T09:55:05.858Z,100031.06
2019-03-12T09:57:51.941Z,100029.16
2019-03-12T10:00:54.284Z,100037.21
2019-03-12T10:03:57.114Z,100039.87
2019-03-12T10:06:48.366Z,100039.56
2019-03-12T10:09:40.870Z,100041.45
2019-03-12T10:12:31.724Z,100036.84
2019-03-12T10:15:43.043Z,100031.39
2019-03-12T10:18:35.580Z,100019.91
2019-03-12T10:21:38.021Z,100013.28
2019-03-12T10:24:29.158Z,100017.46
2019-03-12T10:27:40.402Z,100005.38
2019-03-12T10:30:40.281Z,100013.59
2019-03-12T10:33:28.238Z,100012.93
2019-03-12T10:36:26.083Z,100009.03
2019-03-12T10:40:15.448Z,100027.73
2019-03-12T10:43:38.210Z,100019.31
2019-03-12T10:46:43.577Z,100020.25
2019-03-12T10:49:18.241Z,100010.91
2019-03-12T10:51:54.270Z,100018.05
2019-03-12T10:54:29.005Z,100000.73
2019-03-12T10:57:03.541Z,100000.66
2019-03-12T10:59:38.476Z,99994.95
2019-03-12T11:02:14.874Z,99996.58
2019-03-12T11:04:50.077Z,99999.40
2019-03-12T11:07:25.998Z,100002.44
2019-03-12T11:10:00.971Z,100019.92
2019-03-12T11:12:34.339Z,100012.10
2019-03-12T11:15:08.526Z,100001.74
2019-03-12T11:17:49.432Z,100012.09
2019-03-12T11:20:16.288Z,100004.56
2019-03-12T11:22:49.720Z,100019.16
2019-03-12T11:25:27.478Z,100010.05
2019-03-12T11:27:57.185Z,100006.87
2019-03-12T11:30:31.075Z,100003.93
2019-03-12T11:33:06.722Z,99994.50
2019-03-12T11:35:40.096Z,99994.24
2019-03-12T11:38:13.770Z,99994.69
2019-03-12T11:40:47.932Z,99980.68
2019-03-12T11:43:22.479Z,99985.20
2019-03-12T11:45:56.602Z,99977.71
2019-03-12T11:48:29.966Z,99973.34
2019-03-12T11:51:02.817Z,99958.45
2019-03-12T11:53:36.306Z,99953.97
2019-03-12T11:56:10.369Z,99955.00
2019-03-12T11:58:44.088Z,99961.26
2019-03-12T12:01:17.157Z,99950.88
2019-03-12T12:03:51.226Z,99955.45
2019-03-12T12:06:25.332Z,99949.47
2019-03-12T12:08:58.945Z,99949.58
2019-03-12T12:11:32.958Z,99955.08
2019-03-12T12:14:07.039Z,99937.91
2019-03-12T12:16:41.075Z,99941.48
2019-03-12T12:19:15.110Z,99929.72
2019-03-12T12:21:49.102Z,99926.91
2019-03-12T12:24:22.470Z,99922.02
2019-03-12T12:26:56.510Z,99928.22
2019-03-12T12:29:30.190Z,99923.47
2019-03-12T12:32:02.759Z,99907.13
2019-03-12T12:34:35.161Z,99905.66
2019-03-12T12:37:08.310Z,99915.48
2019-03-12T12:39:41.063Z,99906.86
2019-03-12T12:42:14.657Z,99903.30
2019-03-12T12:44:48.182Z,99901.63
2019-03-12T12:47:22.239Z,99898.16
2019-03-12T12:50:05.502Z,99894.55
2019-03-12T12:52:39.633Z,99889.06
2019-03-12T12:55:13.818Z,99884.78
2019-03-12T12:57:48.278Z,99878.95
2019-03-12T13:00:24.050Z,99880.48
2019-03-12T13:02:59.430Z,99873.54
2019-03-12T13:05:33.076Z,99871.23
2019-03-12T13:08:07.746Z,99887.05
2019-03-12T13:10:42.301Z,99874.16
2019-03-12T13:13:17.911Z,99860.59
2019-03-12T13:15:51.918Z,99871.86
2019-03-12T13:18:25.949Z,99853.44
2019-03-12T13:21:01.397Z,99863.06
2019-03-12T13:23:37.341Z,99875.73
2019-03-12T13:26:11.834Z,99871.63
2019-03-12T13:28:46.201Z,99859.08
2019-03-12T13:31:20.800Z,99863.29
2019-03-12T13:33:53.277Z,99866.41
2019-03-12T13:36:29.099Z,99861.77
2019-03-12T13:39:07.572Z,99868.53
2019-03-12T13:41:42.558Z,99856.86
2019-03-12T13:44:18.693Z,99856.65
2019-03-12T13:46:52.120Z,99844.72
2019-03-12T13:49:26.163Z,99837.19
2019-03-12T13:52:01.125Z,99826.44
2019-03-12T13:54:35.196Z,99821.55
2019-03-12T13:57:11.920Z,99818.20
2019-03-12T13:59:46.618Z,99810.50
2019-03-12T14:02:22.919Z,99810.58
2019-03-12T14:04:57.112Z,99812.25
2019-03-12T14:07:29.739Z,99808.80
2019-03-12T14:10:03.678Z,99800.81
2019-03-12T14:12:37.633Z,99803.63
2019-03-12T14:15:13.748Z,99800.36
2019-03-12T14:17:46.832Z,99802.13
2019-03-12T14:20:52.599Z,99791.79
2019-03-12T14:23:38.557Z,99783.53
2019-03-12T14:26:11.987Z,99778.48
2019-03-12T14:28:44.443Z,99766.48
2019-03-12T14:31:17.290Z,99759.60
2019-03-12T14:33:51.387Z,99760.84
2019-03-12T14:36:23.368Z,99770.77
2019-03-12T14:38:55.988Z,99764.16
2019-03-12T14:41:29.586Z,99762.05
2019-03-12T14:44:03.173Z,99755.45
2019-03-12T14:46:36.084Z,99766.88
2019-03-12T14:49:10.453Z,99748.52
2019-03-12T14:52:08.730Z,99751.05
2019-03-12T14:54:42.608Z,99749.22
2019-03-12T14:57:16.476Z,99744.20
2019-03-12T14:59:49.414Z,99739.16
2019-03-12T15:02:22.794Z,99743.27
2019-03-12T15:04:55.079Z,99746.45
2019-03-12T15:07:27.939Z,99738.70
2019-03-12T15:10:00.441Z,99734.95
2019-03-12T15:12:32.827Z,99729.27
2019-03-12T15:15:06.233Z,99729.67
2019-03-12T15:17:38.299Z,99722.45
2019-03-12T15:20:11.350Z,99723.30
2019-03-12T15:22:43.796Z,99715.05
2019-03-12T15:25:16.784Z,99712.50
2019-03-12T15:27:49.745Z,99714.20
2019-03-12T15:30:22.047Z,99714.27
2019-03-12T15:32:55.895Z,99710.45
2019-03-12T15:35:30.129Z,99709.14
2019-03-12T15:38:03.410Z,99704.33
2019-03-12T15:40:37.123Z,99703.58
2019-03-12T15:43:11.352Z,99704.17
2019-03-12T15:45:45.157Z,99707.12
2019-03-12T15:48:21.408Z,99705.05
2019-03-12T15:50:54.204Z,99700.55
2019-03-12T15:53:28.534Z,99696.15
2019-03-12T15:56:02.720Z,99690.05
2019-03-12T15:58:36.051Z,99685.84
2019-03-12T16:01:10.268Z,99682.67
2019-03-12T16:03:44.355Z,99680.84
2019-03-12T16:06:18.583Z,99674.18
2019-03-12T16:08:51.943Z,99668.88
2019-03-12T16:11:25.572Z,99663.42
2019-03-12T16:13:59.689Z,99656.44
2019-03-12T16:16:33.875Z,99653.30
2019-03-12T16:19:07.501Z,99643.30
2019-03-12T16:21:41.323Z,99641.92
2019-03-12T16:24:15.526Z,99642.47
2019-03-12T16:26:50.167Z,99638.00
2019-03-12T16:29:24.358Z,99636.27
2019-03-12T16:31:58.192Z,99636.41
2019-03-12T16:34:31.855Z,99636.42
2019-03-12T16:37:05.579Z,99635.78
2019-03-12T16:39:40.085Z,99633.89
2019-03-12T16:42:14.730Z,99632.66
2019-03-12T16:44:48.844Z,99634.88
2019-03-12T16:47:22.248Z,99628.96
2019-03-12T16:49:55.531Z,99633.15
2019-03-12T16:52:28.849Z,99632.08
2019-03-12T16:55:02.755Z,99635.42
2019-03-12T16:57:39.561Z,99637.76
2019-03-12T17:00:14.790Z,99638.84
2019-03-12T17:02:48.579Z,99635.81
2019-03-12T17:05:26.004Z,99637.55
2019-03-12T17:07:58.626Z,99637.46
2019-03-12T17:10:32.336Z,99640.61
2019-03-12T17:13:06.053Z,99641.49
2019-03-12T17:15:40.334Z,99642.21
2019-03-12T17:18:13.606Z,99642.23
2019-03-12T17:20:48.275Z,99649.78
2019-03-12T17:23:21.959Z,99648.25
2019-03-12T17:25:56.089Z,99644.97
2019-03-12T17:28:29.908Z,99641.05
2019-03-12T17:31:03.824Z,99642.52
2019-03-12T17:33:37.925Z,99637.68
2019-03-12T17:36:12.133Z,99638.73
2019-03-12T17:38:47.270Z,99635.30
2019-03-12T17:41:21.415Z,99634.87
2019-03-12T17:43:57.780Z,99625.27
2019-03-12T17:46:31.254Z,99624.24
2019-03-12T17:49:05.189Z,99620.48
2019-03-12T17:51:39.488Z,99615.23
2019-03-12T17:54:11.564Z,99613.94
2019-03-12T17:56:44.555Z,99616.91
2019-03-12T17:59:17.116Z,99619.52
2019-03-12T18:01:49.469Z,99612.37
2019-03-12T18:04:22.883Z,99608.66
2019-03-12T18:06:55.708Z,99609.52
2019-03-12T18:09:29.136Z,99605.13
2019-03-12T18:12:02.481Z,99607.48
2019-03-12T18:14:34.988Z,99603.73
2019-03-12T18:17:08.313Z,99598.97
2019-03-12T18:19:41.235Z,99601.16
2019-03-12T18:22:15.141Z,99594.21
2019-03-12T18:24:48.091Z,99590.02
2019-03-12T18:27:21.021Z,99582.66
2019-03-12T18:29:54.090Z,99577.90
2019-03-12T18:32:26.140Z,99572.28
2019-03-12T18:34:58.687Z,99566.69
2019-03-12T18:37:31.566Z,99569.48
2019-03-12T18:40:04.623Z,99567.55
2019-03-12T18:42:37.608Z,99563.75
2019-03-12T18:45:13.241Z,99558.44
2019-03-12T18:47:45.781Z,99552.73
2019-03-12T18:50:20.350Z,99554.30
2019-03-12T18:52:53.002Z,99547.75
2019-03-12T18:55:56.626Z,99545.64
2019-03-12T18:58:29.105Z,99543.78
2019-03-12T19:01:04.817Z,99545.77
2019-03-12T19:03:38.149Z,99541.12
2019-03-12T19:06:11.522Z,99537.56
2019-03-12T19:08:48.142Z,99529.21
2019-03-12T19:11:18.951Z,99529.56
2019-03-12T19:13:50.975Z,99528.86
2019-03-12T19:16:24.186Z,99530.25
2019-03-12T19:18:59.853Z,99528.95
2019-03-12T19:21:33.146Z,99531.83
2019-03-12T19:24:09.790Z,99524.95
2019-03-12T19:26:42.735Z,99525.23
2019-03-12T19:29:15.578Z,99519.31
2019-03-12T19:32:06.707Z,99517.65
2019-03-12T19:34:41.399Z,99511.76
2019-03-12T19:37:14.436Z,99503.61
2019-03-12T19:39:48.211Z,99500.23
2019-03-12T19:42:21.143Z,99496.38
2019-03-12T19:44:53.658Z,99498.88
2019-03-12T19:47:26.848Z,99492.02
2019-03-12T19:49:59.432Z,99481.80
2019-03-12T19:52:32.855Z,99474.52
2019-03-12T19:55:05.227Z,99475.62
2019-03-12T19:57:38.785Z,99466.88
2019-03-12T20:00:15.181Z,99464.08
2019-03-12T20:02:49.811Z,99463.08
2019-03-12T20:05:22.678Z,99456.39
2019-03-12T20:07:55.630Z,99448.70
2019-03-12T20:11:30.928Z,99454.56
2019-03-12T20:15:13.505Z,99450.33
2019-03-12T20:18:51.167Z,99448.78
2019-03-12T20:22:22.747Z,99437.05
2019-03-12T20:25:49.138Z,99431.87
2019-03-12T20:29:20.630Z,99419.65
2019-03-12T20:33:16.278Z,99410.80
2019-03-12T20:36:49.555Z,99412.45
2019-03-12T20:40:38.835Z,99410.09
2019-03-12T20:44:15.451Z,99400.19
2019-03-12T20:47:45.150Z,99394.23
2019-03-12T20:51:43.010Z,99392.68
2019-03-12T20:55:10.027Z,99381.74
2019-03-12T20:59:10.566Z,99374.84
2019-03-12T21:02:50.331Z,99364.12
2019-03-12T21:06:42.377Z,99351.25
2019-03-12T21:10:16.393Z,99345.01
2019-03-12T21:13:51.402Z,99335.83
2019-03-12T21:17:49.710Z,99324.66
2019-03-12T21:21:17.101Z,99308.47
2019-03-12T21:24:59.032Z,99298.59
2019-03-12T21:28:42.366Z,99288.42
2019-03-12T21:31:15.812Z,99280.19
2019-03-12T21:33:48.235Z,99278.38
2019-03-12T21:36:21.308Z,99275.32
2019-03-12T21:38:54.805Z,99274.27
2019-03-12T21:41:26.798Z,99264.12
2019-03-12T21:44:01.747Z,99259.97
2019-03-12T21:46:35.887Z,99244.61
2019-03-12T21:49:09.840Z,99237.70
2019-03-12T21:51:43.912Z,99230.47
2019-03-12T21:54:17.530Z,99234.68
2019-03-12T21:56:51.139Z,99226.68
2019-03-12T21:59:24.971Z,99227.00
2019-03-12T22:01:59.053Z,99223.52
2019-03-12T22:04:32.858Z,99218.78
2019-03-12T22:07:07.060Z,99209.20
2019-03-12T22:09:41.195Z,99208.95
2019-03-12T22:12:15.440Z,99205.03
2019-03-12T22:14:49.301Z,99193.59
2019-03-12T22:17:23.326Z,99191.77
2019-03-12T22:19:57.448Z,99187.13
2019-03-12T22:22:47.644Z,99181.50
2019-03-12T22:25:22.282Z,99180.88
2019-03-12T22:27:56.501Z,99167.19
2019-03-12T22:30:29.843Z,99157.41
2019-03-12T22:33:03.678Z,99151.11
2019-03-12T22:35:37.380Z,99144.62
2019-03-12T22:38:10.654Z,99139.27
2019-03-12T22:40:44.488Z,99131.48
2019-03-12T22:43:18.722Z,99125.52
2019-03-12T22:45:52.089Z,99117.13
2019-03-12T22:48:26.087Z,99117.40
2019-03-12T22:50:59.832Z,99108.84
2019-03-12T22:53:34.647Z,99097.41
2019-03-12T22:56:08.494Z,99094.59
2019-03-12T22:58:42.257Z,99085.21
2019-03-12T23:01:16.064Z,99084.11
2019-03-12T23:03:50.206Z,99074.07
2019-03-12T23:06:23.905Z,99069.53
2019-03-12T23:08:58.237Z,99062.73
2019-03-12T23:11:31.459Z,99058.00
2019-03-12T23:14:04.970Z,99044.73
2019-03-12T23:16:38.820Z,99040.09
2019-03-12T23:19:12.422Z,99037.41
2019-03-12T23:21:45.721Z,99032.17
2019-03-12T23:24:18.809Z,99016.61
2019-03-12T23:26:52.306Z,99013.92
2019-03-12T23:29:26.122Z,99011.47
2019-03-12T23:31:58.939Z,99006.66
2019-03-12T23:34:33.009Z,99004.23
2019-03-12T23:37:06.504Z,99001.89
2019-03-12T23:39:40.680Z,99000.70
2019-03-12T23:42:15.561Z,98995.92
2019-03-12T23:44:49.667Z,98987.64
2019-03-12T23:47:22.777Z,98989.06
2019-03-12T23:49:56.600Z,98975.34
2019-03-12T23:52:31.071Z,98976.24
2019-03-12T23:55:05.388Z,98968.32
2019-03-12T23:57:38.441Z,98955.63
